sensor_id;sensor_type;location;lat;lon;timestamp;temperature;humidity
78448;SHT31;67742;51.972;5.682;2023-05-19T00:02:23;12.8;56.6
78448;SHT31;67742;51.972;5.682;2023-05-19T00:04:53;12.8;56.6
78448;SHT31;67742;51.972;5.682;2023-05-19T00:07:26;12.8;56.7
78448;SHT31;67742;51.972;5.682;2023-05-19T00:09:58;12.7;56.5
78448;SHT31;67742;51.972;5.682;2023-05-19T00:12:27;12.7;56.5
78448;SHT31;67742;51.972;5.682;2023-05-19T00:14:56;12.7;56.5
78448;SHT31;67742;51.972;5.682;2023-05-19T00:17:25;12.7;56.9
78448;SHT31;67742;51.972;5.682;2023-05-19T00:19:54;12.7;56.7
78448;SHT31;67742;51.972;5.682;2023-05-19T00:22:23;12.6;56.8
78448;SHT31;67742;51.972;5.682;2023-05-19T00:24:51;12.6;56.8
78448;SHT31;67742;51.972;5.682;2023-05-19T00:27:20;12.6;57.2
78448;SHT31;67742;51.972;5.682;2023-05-19T00:29:48;12.6;57.0
78448;SHT31;67742;51.972;5.682;2023-05-19T00:32:17;12.6;57.2
78448;SHT31;67742;51.972;5.682;2023-05-19T00:34:45;12.5;57.3
78448;SHT31;67742;51.972;5.682;2023-05-19T00:37:14;12.5;57.5
78448;SHT31;67742;51.972;5.682;2023-05-19T00:39:43;12.5;57.0
78448;SHT31;67742;51.972;5.682;2023-05-19T00:42:12;12.5;57.4
78448;SHT31;67742;51.972;5.682;2023-05-19T00:44:41;12.5;57.6
78448;SHT31;67742;51.972;5.682;2023-05-19T00:47:12;12.5;57.3
78448;SHT31;67742;51.972;5.682;2023-05-19T00:49:40;12.4;57.7
78448;SHT31;67742;51.972;5.682;2023-05-19T00:52:09;12.4;57.7
78448;SHT31;67742;51.972;5.682;2023-05-19T00:54:39;12.4;57.6
78448;SHT31;67742;51.972;5.682;2023-05-19T00:57:10;12.4;57.9
78448;SHT31;67742;51.972;5.682;2023-05-19T00:59:39;12.4;57.6
78448;SHT31;67742;51.972;5.682;2023-05-19T01:02:08;12.4;57.8
78448;SHT31;67742;51.972;5.682;2023-05-19T01:04:38;12.4;57.9
78448;SHT31;67742;51.972;5.682;2023-05-19T01:07:10;12.4;57.9
78448;SHT31;67742;51.972;5.682;2023-05-19T01:09:38;12.3;58.0
78448;SHT31;67742;51.972;5.682;2023-05-19T01:12:08;12.3;57.9
78448;SHT31;67742;51.972;5.682;2023-05-19T01:14:37;12.3;58.1
78448;SHT31;67742;51.972;5.682;2023-05-19T01:17:16;12.3;58.0
78448;SHT31;67742;51.972;5.682;2023-05-19T01:19:56;12.3;58.1
78448;SHT31;67742;51.972;5.682;2023-05-19T01:23:02;12.3;58.2
78448;SHT31;67742;51.972;5.682;2023-05-19T01:27:26;12.2;58.0
78448;SHT31;67742;51.972;5.682;2023-05-19T01:30:11;12.2;58.2
78448;SHT31;67742;51.972;5.682;2023-05-19T01:32:46;12.2;58.4
78448;SHT31;67742;51.972;5.682;2023-05-19T01:35:15;12.2;58.4
78448;SHT31;67742;51.972;5.682;2023-05-19T01:37:46;12.1;58.6
78448;SHT31;67742;51.972;5.682;2023-05-19T01:40:15;12.1;58.9
78448;SHT31;67742;51.972;5.682;2023-05-19T01:42:48;12.1;58.6
78448;SHT31;67742;51.972;5.682;2023-05-19T01:45:21;12.1;58.7
78448;SHT31;67742;51.972;5.682;2023-05-19T01:47:53;12.1;58.5
78448;SHT31;67742;51.972;5.682;2023-05-19T01:50:22;12.0;58.8
78448;SHT31;67742;51.972;5.682;2023-05-19T01:52:51;12.0;58.6
78448;SHT31;67742;51.972;5.682;2023-05-19T01:55:20;12.0;59.2
78448;SHT31;67742;51.972;5.682;2023-05-19T01:58:01;12.0;59.2
78448;SHT31;67742;51.972;5.682;2023-05-19T02:00:42;11.9;59.2
78448;SHT31;67742;51.972;5.682;2023-05-19T02:03:28;11.9;59.1
78448;SHT31;67742;51.972;5.682;2023-05-19T02:06:06;11.9;59.5
78448;SHT31;67742;51.972;5.682;2023-05-19T02:08:43;11.9;59.7
78448;SHT31;67742;51.972;5.682;2023-05-19T02:11:21;11.9;59.8
78448;SHT31;67742;51.972;5.682;2023-05-19T02:13:56;11.8;59.5
78448;SHT31;67742;51.972;5.682;2023-05-19T02:16:29;11.8;59.7
78448;SHT31;67742;51.972;5.682;2023-05-19T02:18:57;11.8;59.9
78448;SHT31;67742;51.972;5.682;2023-05-19T02:21:26;11.8;59.7
78448;SHT31;67742;51.972;5.682;2023-05-19T02:23:54;11.8;59.9
78448;SHT31;67742;51.972;5.682;2023-05-19T02:26:23;11.8;60.2
78448;SHT31;67742;51.972;5.682;2023-05-19T02:28:51;11.7;59.8
78448;SHT31;67742;51.972;5.682;2023-05-19T02:31:20;11.7;60.2
78448;SHT31;67742;51.972;5.682;2023-05-19T02:33:48;11.7;60.2
78448;SHT31;67742;51.972;5.682;2023-05-19T02:36:17;11.7;60.4
78448;SHT31;67742;51.972;5.682;2023-05-19T02:38:45;11.7;60.1
78448;SHT31;67742;51.972;5.682;2023-05-19T02:41:13;11.6;60.2
78448;SHT31;67742;51.972;5.682;2023-05-19T02:43:42;11.6;60.5
78448;SHT31;67742;51.972;5.682;2023-05-19T02:46:12;11.6;60.6
78448;SHT31;67742;51.972;5.682;2023-05-19T02:48:41;11.6;60.4
78448;SHT31;67742;51.972;5.682;2023-05-19T02:51:09;11.6;60.1
78448;SHT31;67742;51.972;5.682;2023-05-19T02:53:38;11.6;60.6
78448;SHT31;67742;51.972;5.682;2023-05-19T02:56:07;11.5;60.8
78448;SHT31;67742;51.972;5.682;2023-05-19T02:58:36;11.5;60.7
78448;SHT31;67742;51.972;5.682;2023-05-19T03:01:04;11.5;61.2
78448;SHT31;67742;51.972;5.682;2023-05-19T03:03:35;11.5;61.0
78448;SHT31;67742;51.972;5.682;2023-05-19T03:06:04;11.5;61.4
78448;SHT31;67742;51.972;5.682;2023-05-19T03:08:34;11.5;61.2
78448;SHT31;67742;51.972;5.682;2023-05-19T03:11:03;11.4;61.5
78448;SHT31;67742;51.972;5.682;2023-05-19T03:13:31;11.4;61.5
78448;SHT31;67742;51.972;5.682;2023-05-19T03:16:00;11.4;61.8
78448;SHT31;67742;51.972;5.682;2023-05-19T03:18:30;11.4;61.8
78448;SHT31;67742;51.972;5.682;2023-05-19T03:20:59;11.4;61.7
78448;SHT31;67742;51.972;5.682;2023-05-19T03:23:29;11.4;62.1
78448;SHT31;67742;51.972;5.682;2023-05-19T03:25:57;11.4;61.6
78448;SHT31;67742;51.972;5.682;2023-05-19T03:28:26;11.4;61.8
78448;SHT31;67742;51.972;5.682;2023-05-19T03:30:55;11.3;62.3
78448;SHT31;67742;51.972;5.682;2023-05-19T03:33:23;11.3;62.4
78448;SHT31;67742;51.972;5.682;2023-05-19T03:35:55;11.3;62.2
78448;SHT31;67742;51.972;5.682;2023-05-19T03:38:24;11.3;62.3
78448;SHT31;67742;51.972;5.682;2023-05-19T03:40:53;11.3;62.7
78448;SHT31;67742;51.972;5.682;2023-05-19T03:43:21;11.3;62.7
78448;SHT31;67742;51.972;5.682;2023-05-19T03:45:50;11.3;62.8
78448;SHT31;67742;51.972;5.682;2023-05-19T03:48:18;11.3;62.5
78448;SHT31;67742;51.972;5.682;2023-05-19T03:50:47;11.3;62.2
78448;SHT31;67742;51.972;5.682;2023-05-19T03:53:15;11.2;62.6
78448;SHT31;67742;51.972;5.682;2023-05-19T03:55:44;11.2;62.8
78448;SHT31;67742;51.972;5.682;2023-05-19T03:58:14;11.2;62.7
78448;SHT31;67742;51.972;5.682;2023-05-19T04:00:42;11.2;63.1
78448;SHT31;67742;51.972;5.682;2023-05-19T04:03:13;11.2;63.2
78448;SHT31;67742;51.972;5.682;2023-05-19T04:05:42;11.2;63.0
78448;SHT31;67742;51.972;5.682;2023-05-19T04:08:11;11.2;62.9
78448;SHT31;67742;51.972;5.682;2023-05-19T04:10:39;11.2;63.4
78448;SHT31;67742;51.972;5.682;2023-05-19T04:13:08;11.2;63.3
78448;SHT31;67742;51.972;5.682;2023-05-19T04:15:37;11.2;63.2
78448;SHT31;67742;51.972;5.682;2023-05-19T04:18:06;11.2;63.5
78448;SHT31;67742;51.972;5.682;2023-05-19T04:20:35;11.2;63.3
78448;SHT31;67742;51.972;5.682;2023-05-19T04:23:03;11.2;63.0
78448;SHT31;67742;51.972;5.682;2023-05-19T04:25:32;11.2;63.1
78448;SHT31;67742;51.972;5.682;2023-05-19T04:28:01;11.2;63.3
78448;SHT31;67742;51.972;5.682;2023-05-19T04:30:30;11.2;63.5
78448;SHT31;67742;51.972;5.682;2023-05-19T04:32:59;11.2;63.6
78448;SHT31;67742;51.972;5.682;2023-05-19T04:35:30;11.2;63.6
78448;SHT31;67742;51.972;5.682;2023-05-19T04:37:58;11.2;63.9
78448;SHT31;67742;51.972;5.682;2023-05-19T04:40:27;11.2;63.6
78448;SHT31;67742;51.972;5.682;2023-05-19T04:42:56;11.2;64.0
78448;SHT31;67742;51.972;5.682;2023-05-19T04:45:27;11.2;63.8
78448;SHT31;67742;51.972;5.682;2023-05-19T04:47:58;11.2;63.9
78448;SHT31;67742;51.972;5.682;2023-05-19T04:50:27;11.2;64.0
78448;SHT31;67742;51.972;5.682;2023-05-19T04:52:59;11.2;63.7
78448;SHT31;67742;51.972;5.682;2023-05-19T04:55:27;11.2;63.8
78448;SHT31;67742;51.972;5.682;2023-05-19T04:57:56;11.2;64.0
78448;SHT31;67742;51.972;5.682;2023-05-19T05:00:25;11.2;63.9
78448;SHT31;67742;51.972;5.682;2023-05-19T05:02:54;11.2;64.5
78448;SHT31;67742;51.972;5.682;2023-05-19T05:05:24;11.2;64.2
78448;SHT31;67742;51.972;5.682;2023-05-19T05:07:54;11.2;64.5
78448;SHT31;67742;51.972;5.682;2023-05-19T05:10:25;11.2;64.3
78448;SHT31;67742;51.972;5.682;2023-05-19T05:12:54;11.2;64.2
78448;SHT31;67742;51.972;5.682;2023-05-19T05:15:27;11.3;64.6
78448;SHT31;67742;51.972;5.682;2023-05-19T05:17:56;11.3;64.5
78448;SHT31;67742;51.972;5.682;2023-05-19T05:20:27;11.3;64.5
78448;SHT31;67742;51.972;5.682;2023-05-19T05:22:57;11.3;64.5
78448;SHT31;67742;51.972;5.682;2023-05-19T05:25:27;11.3;64.7
78448;SHT31;67742;51.972;5.682;2023-05-19T05:27:56;11.4;64.7
78448;SHT31;67742;51.972;5.682;2023-05-19T05:30:30;11.4;64.5
78448;SHT31;67742;51.972;5.682;2023-05-19T05:32:59;11.4;64.6
78448;SHT31;67742;51.972;5.682;2023-05-19T05:35:27;11.4;64.8
78448;SHT31;67742;51.972;5.682;2023-05-19T05:37:56;11.5;64.6
78448;SHT31;67742;51.972;5.682;2023-05-19T05:40:25;11.5;65.0
78448;SHT31;67742;51.972;5.682;2023-05-19T05:42:54;11.5;64.7
78448;SHT31;67742;51.972;5.682;2023-05-19T05:45:25;11.5;64.8
78448;SHT31;67742;51.972;5.682;2023-05-19T05:47:55;11.6;64.7
78448;SHT31;67742;51.972;5.682;2023-05-19T05:50:24;11.6;64.0
78448;SHT31;67742;51.972;5.682;2023-05-19T05:52:54;11.6;64.1
78448;SHT31;67742;51.972;5.682;2023-05-19T05:55:25;11.7;63.7
78448;SHT31;67742;51.972;5.682;2023-05-19T05:57:54;11.7;64.2
78448;SHT31;67742;51.972;5.682;2023-05-19T06:00:24;11.8;64.2
78448;SHT31;67742;51.972;5.682;2023-05-19T06:02:53;11.8;64.4
78448;SHT31;67742;51.972;5.682;2023-05-19T06:05:24;11.8;64.0
78448;SHT31;67742;51.972;5.682;2023-05-19T06:07:53;11.9;64.0
78448;SHT31;67742;51.972;5.682;2023-05-19T06:10:22;11.9;63.8
78448;SHT31;67742;51.972;5.682;2023-05-19T06:12:51;11.9;64.0
78448;SHT31;67742;51.972;5.682;2023-05-19T06:15:20;12.0;64.1
78448;SHT31;67742;51.972;5.682;2023-05-19T06:17:48;12.0;63.7
78448;SHT31;67742;51.972;5.682;2023-05-19T06:20:17;12.1;63.2
78448;SHT31;67742;51.972;5.682;2023-05-19T06:22:46;12.1;63.0
78448;SHT31;67742;51.972;5.682;2023-05-19T06:25:14;12.2;63.6
78448;SHT31;67742;51.972;5.682;2023-05-19T06:27:44;12.3;63.6
78448;SHT31;67742;51.972;5.682;2023-05-19T06:30:13;12.3;63.3
78448;SHT31;67742;51.972;5.682;2023-05-19T06:32:42;12.4;63.0
78448;SHT31;67742;51.972;5.682;2023-05-19T06:35:11;12.4;62.8
78448;SHT31;67742;51.972;5.682;2023-05-19T06:37:40;12.5;62.4
78448;SHT31;67742;51.972;5.682;2023-05-19T06:40:09;12.6;62.7
78448;SHT31;67742;51.972;5.682;2023-05-19T06:42:38;12.6;62.7
78448;SHT31;67742;51.972;5.682;2023-05-19T06:45:08;12.7;62.2
78448;SHT31;67742;51.972;5.682;2023-05-19T06:47:37;12.8;60.3
78448;SHT31;67742;51.972;5.682;2023-05-19T06:50:08;12.9;61.3
78448;SHT31;67742;51.972;5.682;2023-05-19T06:52:37;12.9;60.3
78448;SHT31;67742;51.972;5.682;2023-05-19T06:55:06;13.0;61.4
78448;SHT31;67742;51.972;5.682;2023-05-19T06:57:37;13.1;60.2
78448;SHT31;67742;51.972;5.682;2023-05-19T07:00:07;13.2;59.8
78448;SHT31;67742;51.972;5.682;2023-05-19T07:02:38;13.3;60.4
78448;SHT31;67742;51.972;5.682;2023-05-19T07:05:08;13.4;59.3
78448;SHT31;67742;51.972;5.682;2023-05-19T07:07:37;13.5;59.1
78448;SHT31;67742;51.972;5.682;2023-05-19T07:10:07;13.6;59.0
78448;SHT31;67742;51.972;5.682;2023-05-19T07:12:36;13.7;58.6
78448;SHT31;67742;51.972;5.682;2023-05-19T07:15:05;13.8;58.5
78448;SHT31;67742;51.972;5.682;2023-05-19T07:17:34;13.9;58.2
78448;SHT31;67742;51.972;5.682;2023-05-19T07:20:03;14.0;57.9
78448;SHT31;67742;51.972;5.682;2023-05-19T07:22:36;14.1;57.7
78448;SHT31;67742;51.972;5.682;2023-05-19T07:25:07;14.2;58.5
78448;SHT31;67742;51.972;5.682;2023-05-19T07:27:36;14.3;56.7
78448;SHT31;67742;51.972;5.682;2023-05-19T07:30:05;14.4;56.5
78448;SHT31;67742;51.972;5.682;2023-05-19T07:32:34;14.5;57.5
78448;SHT31;67742;51.972;5.682;2023-05-19T07:35:05;14.6;55.8
78448;SHT31;67742;51.972;5.682;2023-05-19T07:37:33;14.7;56.4
78448;SHT31;67742;51.972;5.682;2023-05-19T07:40:02;14.8;54.9
78448;SHT31;67742;51.972;5.682;2023-05-19T07:42:33;14.9;55.0
78448;SHT31;67742;51.972;5.682;2023-05-19T07:45:02;15.0;53.4
78448;SHT31;67742;51.972;5.682;2023-05-19T07:47:31;15.1;53.6
78448;SHT31;67742;51.972;5.682;2023-05-19T07:49:59;15.2;53.2
78448;SHT31;67742;51.972;5.682;2023-05-19T07:52:28;15.3;53.0
78448;SHT31;67742;51.972;5.682;2023-05-19T07:54:58;15.4;52.4
78448;SHT31;67742;51.972;5.682;2023-05-19T07:57:26;15.6;53.4
78448;SHT31;67742;51.972;5.682;2023-05-19T07:59:55;15.7;51.4
78448;SHT31;67742;51.972;5.682;2023-05-19T08:02:23;15.8;52.0
78448;SHT31;67742;51.972;5.682;2023-05-19T08:04:51;15.9;49.5
78448;SHT31;67742;51.972;5.682;2023-05-19T08:07:20;16.0;50.4
78448;SHT31;67742;51.972;5.682;2023-05-19T08:09:48;16.1;50.3
78448;SHT31;67742;51.972;5.682;2023-05-19T08:12:17;16.2;50.3
78448;SHT31;67742;51.972;5.682;2023-05-19T08:14:45;16.4;49.2
78448;SHT31;67742;51.972;5.682;2023-05-19T08:17:15;16.5;49.0
78448;SHT31;67742;51.972;5.682;2023-05-19T08:19:45;16.6;47.6
78448;SHT31;67742;51.972;5.682;2023-05-19T08:22:13;16.7;47.7
78448;SHT31;67742;51.972;5.682;2023-05-19T08:24:41;16.8;46.3
78448;SHT31;67742;51.972;5.682;2023-05-19T08:27:10;16.9;46.5
78448;SHT31;67742;51.972;5.682;2023-05-19T08:29:38;17.0;47.5
78448;SHT31;67742;51.972;5.682;2023-05-19T08:32:07;17.1;47.2
78448;SHT31;67742;51.972;5.682;2023-05-19T08:34:36;17.2;45.9
78448;SHT31;67742;51.972;5.682;2023-05-19T08:37:05;17.3;44.8
78448;SHT31;67742;51.972;5.682;2023-05-19T08:39:34;17.4;44.1
78448;SHT31;67742;51.972;5.682;2023-05-19T08:42:02;17.5;44.4
78448;SHT31;67742;51.972;5.682;2023-05-19T08:44:33;17.6;44.3
78448;SHT31;67742;51.972;5.682;2023-05-19T08:47:02;17.7;44.9
78448;SHT31;67742;51.972;5.682;2023-05-19T08:49:44;17.8;43.8
78448;SHT31;67742;51.972;5.682;2023-05-19T08:52:21;17.8;43.6
78448;SHT31;67742;51.972;5.682;2023-05-19T08:54:57;17.9;42.9
78448;SHT31;67742;51.972;5.682;2023-05-19T08:57:28;18.0;43.4
78448;SHT31;67742;51.972;5.682;2023-05-19T08:59:58;18.0;43.6
78448;SHT31;67742;51.972;5.682;2023-05-19T09:02:30;18.1;44.2
78448;SHT31;67742;51.972;5.682;2023-05-19T09:05:00;18.1;42.3
78448;SHT31;67742;51.972;5.682;2023-05-19T09:07:30;18.2;42.6
78448;SHT31;67742;51.972;5.682;2023-05-19T09:10:00;18.3;42.9
78448;SHT31;67742;51.972;5.682;2023-05-19T09:12:29;18.3;41.8
78448;SHT31;67742;51.972;5.682;2023-05-19T09:14:58;18.4;41.7
78448;SHT31;67742;51.972;5.682;2023-05-19T09:17:27;18.5;42.1
78448;SHT31;67742;51.972;5.682;2023-05-19T09:20:00;18.5;42.4
78448;SHT31;67742;51.972;5.682;2023-05-19T09:22:29;18.6;42.2
78448;SHT31;67742;51.972;5.682;2023-05-19T09:25:01;18.6;40.7
78448;SHT31;67742;51.972;5.682;2023-05-19T09:27:30;18.7;40.1
78448;SHT31;67742;51.972;5.682;2023-05-19T09:30:08;18.7;41.1
78448;SHT31;67742;51.972;5.682;2023-05-19T09:32:37;18.7;40.9
78448;SHT31;67742;51.972;5.682;2023-05-19T09:35:06;18.8;41.5
78448;SHT31;67742;51.972;5.682;2023-05-19T09:37:38;18.8;40.8
78448;SHT31;67742;51.972;5.682;2023-05-19T09:40:08;18.9;40.5
78448;SHT31;67742;51.972;5.682;2023-05-19T09:42:40;19.0;39.8
78448;SHT31;67742;51.972;5.682;2023-05-19T09:45:09;19.0;40.9
78448;SHT31;67742;51.972;5.682;2023-05-19T09:47:40;19.1;39.3
78448;SHT31;67742;51.972;5.682;2023-05-19T09:50:11;19.2;39.9
78448;SHT31;67742;51.972;5.682;2023-05-19T09:52:42;19.3;40.5
78448;SHT31;67742;51.972;5.682;2023-05-19T09:55:12;19.4;40.2
78448;SHT31;67742;51.972;5.682;2023-05-19T09:57:41;19.5;40.5
78448;SHT31;67742;51.972;5.682;2023-05-19T10:00:13;19.6;40.2
78448;SHT31;67742;51.972;5.682;2023-05-19T10:02:44;19.7;39.8
78448;SHT31;67742;51.972;5.682;2023-05-19T10:05:15;19.9;39.1
78448;SHT31;67742;51.972;5.682;2023-05-19T10:07:46;20.0;38.4
78448;SHT31;67742;51.972;5.682;2023-05-19T10:10:17;20.1;38.6
78448;SHT31;67742;51.972;5.682;2023-05-19T10:12:47;20.3;39.0
78448;SHT31;67742;51.972;5.682;2023-05-19T10:15:17;20.4;37.1
78448;SHT31;67742;51.972;5.682;2023-05-19T10:17:49;20.5;38.4
78448;SHT31;67742;51.972;5.682;2023-05-19T10:20:18;20.7;38.9
78448;SHT31;67742;51.972;5.682;2023-05-19T10:22:48;20.8;39.3
78448;SHT31;67742;51.972;5.682;2023-05-19T10:25:16;21.0;37.4
78448;SHT31;67742;51.972;5.682;2023-05-19T10:27:51;21.1;36.5
78448;SHT31;67742;51.972;5.682;2023-05-19T10:30:27;21.3;36.5
78448;SHT31;67742;51.972;5.682;2023-05-19T10:32:59;21.5;36.3
78448;SHT31;67742;51.972;5.682;2023-05-19T10:36:13;21.7;36.0
78448;SHT31;67742;51.972;5.682;2023-05-19T10:38:48;21.9;35.7
78448;SHT31;67742;51.972;5.682;2023-05-19T10:41:27;22.1;36.2
78448;SHT31;67742;51.972;5.682;2023-05-19T10:44:08;22.3;34.5
78448;SHT31;67742;51.972;5.682;2023-05-19T10:46:39;22.5;35.7
78448;SHT31;67742;51.972;5.682;2023-05-19T10:49:08;22.6;36.3
78448;SHT31;67742;51.972;5.682;2023-05-19T10:51:37;22.8;33.8
78448;SHT31;67742;51.972;5.682;2023-05-19T10:54:09;22.9;34.4
78448;SHT31;67742;51.972;5.682;2023-05-19T10:56:38;23.1;34.5
78448;SHT31;67742;51.972;5.682;2023-05-19T10:59:31;23.2;34.9
78448;SHT31;67742;51.972;5.682;2023-05-19T11:02:04;23.4;34.4
78448;SHT31;67742;51.972;5.682;2023-05-19T11:04:47;23.6;34.6
78448;SHT31;67742;51.972;5.682;2023-05-19T11:07:20;23.7;35.0
78448;SHT31;67742;51.972;5.682;2023-05-19T11:09:51;23.9;34.6
78448;SHT31;67742;51.972;5.682;2023-05-19T11:12:22;24.1;34.5
78448;SHT31;67742;51.972;5.682;2023-05-19T11:14:53;24.3;32.5
78448;SHT31;67742;51.972;5.682;2023-05-19T11:17:24;24.4;31.7
78448;SHT31;67742;51.972;5.682;2023-05-19T11:19:54;24.5;32.4
78448;SHT31;67742;51.972;5.682;2023-05-19T11:22:25;24.6;32.2
78448;SHT31;67742;51.972;5.682;2023-05-19T11:24:56;24.7;32.0
78448;SHT31;67742;51.972;5.682;2023-05-19T11:27:26;24.8;32.8
78448;SHT31;67742;51.972;5.682;2023-05-19T11:29:57;24.9;31.3
78448;SHT31;67742;51.972;5.682;2023-05-19T11:32:29;25.1;32.9
78448;SHT31;67742;51.972;5.682;2023-05-19T11:34:59;25.2;32.0
78448;SHT31;67742;51.972;5.682;2023-05-19T11:37:31;25.3;33.0
78448;SHT31;67742;51.972;5.682;2023-05-19T11:40:02;25.5;33.3
78448;SHT31;67742;51.972;5.682;2023-05-19T11:42:33;25.6;32.7
78448;SHT31;67742;51.972;5.682;2023-05-19T11:45:03;25.8;31.8
78448;SHT31;67742;51.972;5.682;2023-05-19T11:47:32;25.9;30.0
78448;SHT31;67742;51.972;5.682;2023-05-19T11:50:04;26.0;31.3
78448;SHT31;67742;51.972;5.682;2023-05-19T11:52:33;26.1;29.6
78448;SHT31;67742;51.972;5.682;2023-05-19T11:55:02;26.2;28.8
78448;SHT31;67742;51.972;5.682;2023-05-19T11:57:30;26.2;30.2
78448;SHT31;67742;51.972;5.682;2023-05-19T12:00:01;26.3;30.0
78448;SHT31;67742;51.972;5.682;2023-05-19T12:02:35;26.4;29.4
78448;SHT31;67742;51.972;5.682;2023-05-19T12:05:04;26.4;29.2
78448;SHT31;67742;51.972;5.682;2023-05-19T12:07:33;26.5;28.8
78448;SHT31;67742;51.972;5.682;2023-05-19T12:10:02;26.6;28.6
78448;SHT31;67742;51.972;5.682;2023-05-19T12:12:31;26.6;28.7
78448;SHT31;67742;51.972;5.682;2023-05-19T12:15:01;26.6;27.4
78448;SHT31;67742;51.972;5.682;2023-05-19T12:17:31;26.7;28.7
78448;SHT31;67742;51.972;5.682;2023-05-19T12:20:00;26.8;29.4
78448;SHT31;67742;51.972;5.682;2023-05-19T12:22:30;26.8;28.8
78448;SHT31;67742;51.972;5.682;2023-05-19T12:24:59;26.9;28.5
78448;SHT31;67742;51.972;5.682;2023-05-19T12:27:34;27.0;27.4
78448;SHT31;67742;51.972;5.682;2023-05-19T12:30:04;27.1;27.4
78448;SHT31;67742;51.972;5.682;2023-05-19T12:32:34;27.1;27.2
78448;SHT31;67742;51.972;5.682;2023-05-19T12:35:04;27.2;28.2
78448;SHT31;67742;51.972;5.682;2023-05-19T12:37:33;27.2;29.0
78448;SHT31;67742;51.972;5.682;2023-05-19T12:40:04;27.2;30.6
78448;SHT31;67742;51.972;5.682;2023-05-19T12:42:33;27.3;31.0
78448;SHT31;67742;51.972;5.682;2023-05-19T12:45:03;27.3;30.0
78448;SHT31;67742;51.972;5.682;2023-05-19T12:47:34;27.4;29.2
78448;SHT31;67742;51.972;5.682;2023-05-19T12:50:04;27.5;28.6
78448;SHT31;67742;51.972;5.682;2023-05-19T12:52:42;27.6;28.4
78448;SHT31;67742;51.972;5.682;2023-05-19T12:55:13;27.6;28.2
78448;SHT31;67742;51.972;5.682;2023-05-19T12:57:43;27.6;27.5
78448;SHT31;67742;51.972;5.682;2023-05-19T13:00:15;27.7;27.9
78448;SHT31;67742;51.972;5.682;2023-05-19T13:02:56;27.7;27.6
78448;SHT31;67742;51.972;5.682;2023-05-19T13:05:28;27.8;27.1
78448;SHT31;67742;51.972;5.682;2023-05-19T13:08:00;27.8;27.6
78448;SHT31;67742;51.972;5.682;2023-05-19T13:10:31;27.8;27.0
78448;SHT31;67742;51.972;5.682;2023-05-19T13:13:01;27.8;28.4
78448;SHT31;67742;51.972;5.682;2023-05-19T13:15:31;27.8;28.9
78448;SHT31;67742;51.972;5.682;2023-05-19T13:18:03;27.9;27.0
78448;SHT31;67742;51.972;5.682;2023-05-19T13:20:37;27.9;27.5
78448;SHT31;67742;51.972;5.682;2023-05-19T13:23:06;27.9;29.3
78448;SHT31;67742;51.972;5.682;2023-05-19T13:25:35;28.0;29.4
78448;SHT31;67742;51.972;5.682;2023-05-19T13:28:04;28.0;27.8
78448;SHT31;67742;51.972;5.682;2023-05-19T13:30:35;28.1;27.4
78448;SHT31;67742;51.972;5.682;2023-05-19T13:33:05;28.2;27.9
78448;SHT31;67742;51.972;5.682;2023-05-19T13:35:34;28.3;27.7
78448;SHT31;67742;51.972;5.682;2023-05-19T13:38:06;28.3;26.9
78448;SHT31;67742;51.972;5.682;2023-05-19T13:40:35;28.4;26.6
78448;SHT31;67742;51.972;5.682;2023-05-19T13:43:05;28.4;26.9
78448;SHT31;67742;51.972;5.682;2023-05-19T13:45:34;28.4;26.8
78448;SHT31;67742;51.972;5.682;2023-05-19T13:48:03;28.5;27.4
78448;SHT31;67742;51.972;5.682;2023-05-19T13:50:34;28.5;27.0
78448;SHT31;67742;51.972;5.682;2023-05-19T13:53:03;28.5;25.6
78448;SHT31;67742;51.972;5.682;2023-05-19T13:55:32;28.5;26.1
78448;SHT31;67742;51.972;5.682;2023-05-19T13:58:00;28.5;26.6
78448;SHT31;67742;51.972;5.682;2023-05-19T14:00:30;28.5;27.2
78448;SHT31;67742;51.972;5.682;2023-05-19T14:03:01;28.5;26.4
78448;SHT31;67742;51.972;5.682;2023-05-19T14:05:29;28.5;26.6
78448;SHT31;67742;51.972;5.682;2023-05-19T14:07:58;28.6;27.2
78448;SHT31;67742;51.972;5.682;2023-05-19T14:10:28;28.6;27.5
78448;SHT31;67742;51.972;5.682;2023-05-19T14:12:57;28.6;27.5
78448;SHT31;67742;51.972;5.682;2023-05-19T14:15:26;28.5;27.2
78448;SHT31;67742;51.972;5.682;2023-05-19T14:17:55;28.5;27.3
78448;SHT31;67742;51.972;5.682;2023-05-19T14:20:26;28.5;27.5
78448;SHT31;67742;51.972;5.682;2023-05-19T14:22:54;28.5;26.9
78448;SHT31;67742;51.972;5.682;2023-05-19T14:25:23;28.5;26.3
78448;SHT31;67742;51.972;5.682;2023-05-19T14:27:51;28.5;27.1
78448;SHT31;67742;51.972;5.682;2023-05-19T14:30:19;28.4;27.7
78448;SHT31;67742;51.972;5.682;2023-05-19T14:32:48;28.4;26.6
78448;SHT31;67742;51.972;5.682;2023-05-19T14:35:16;28.3;27.1
78448;SHT31;67742;51.972;5.682;2023-05-19T14:37:45;28.2;27.0
78448;SHT31;67742;51.972;5.682;2023-05-19T14:40:14;28.2;27.2
78448;SHT31;67742;51.972;5.682;2023-05-19T14:42:42;28.2;25.2
78448;SHT31;67742;51.972;5.682;2023-05-19T14:45:11;28.1;26.0
78448;SHT31;67742;51.972;5.682;2023-05-19T14:47:40;28.1;27.7
78448;SHT31;67742;51.972;5.682;2023-05-19T14:50:09;28.0;25.5
78448;SHT31;67742;51.972;5.682;2023-05-19T14:52:37;28.0;26.1
78448;SHT31;67742;51.972;5.682;2023-05-19T14:55:07;27.9;26.3
78448;SHT31;67742;51.972;5.682;2023-05-19T14:57:36;27.9;26.4
78448;SHT31;67742;51.972;5.682;2023-05-19T15:00:05;27.9;26.4
78448;SHT31;67742;51.972;5.682;2023-05-19T15:02:35;27.9;26.4
78448;SHT31;67742;51.972;5.682;2023-05-19T15:05:04;27.8;27.0
78448;SHT31;67742;51.972;5.682;2023-05-19T15:07:33;27.8;27.5
78448;SHT31;67742;51.972;5.682;2023-05-19T15:10:01;27.8;27.7
78448;SHT31;67742;51.972;5.682;2023-05-19T15:12:30;27.9;27.9
78448;SHT31;67742;51.972;5.682;2023-05-19T15:14:59;27.9;27.1
78448;SHT31;67742;51.972;5.682;2023-05-19T15:17:27;27.9;28.4
78448;SHT31;67742;51.972;5.682;2023-05-19T15:19:58;28.0;27.2
78448;SHT31;67742;51.972;5.682;2023-05-19T15:22:26;28.0;27.6
78448;SHT31;67742;51.972;5.682;2023-05-19T15:24:55;28.0;27.9
78448;SHT31;67742;51.972;5.682;2023-05-19T15:27:23;28.0;26.9
78448;SHT31;67742;51.972;5.682;2023-05-19T15:29:52;28.0;26.1
78448;SHT31;67742;51.972;5.682;2023-05-19T15:32:20;28.0;26.4
78448;SHT31;67742;51.972;5.682;2023-05-19T15:34:49;27.9;27.2
78448;SHT31;67742;51.972;5.682;2023-05-19T15:37:17;27.8;27.3
78448;SHT31;67742;51.972;5.682;2023-05-19T15:39:45;27.8;29.1
78448;SHT31;67742;51.972;5.682;2023-05-19T15:42:14;27.8;27.8
78448;SHT31;67742;51.972;5.682;2023-05-19T15:44:43;27.8;27.8
78448;SHT31;67742;51.972;5.682;2023-05-19T15:47:12;27.8;27.4
78448;SHT31;67742;51.972;5.682;2023-05-19T15:49:41;27.7;26.8
78448;SHT31;67742;51.972;5.682;2023-05-19T15:52:09;27.7;27.0
78448;SHT31;67742;51.972;5.682;2023-05-19T15:54:38;27.6;25.6
78448;SHT31;67742;51.972;5.682;2023-05-19T15:57:07;27.5;26.9
78448;SHT31;67742;51.972;5.682;2023-05-19T15:59:35;27.4;27.3
78448;SHT31;67742;51.972;5.682;2023-05-19T16:02:04;27.3;26.6
78448;SHT31;67742;51.972;5.682;2023-05-19T16:04:33;27.2;27.3
78448;SHT31;67742;51.972;5.682;2023-05-19T16:07:02;27.0;26.7
78448;SHT31;67742;51.972;5.682;2023-05-19T16:09:31;26.9;27.3
78448;SHT31;67742;51.972;5.682;2023-05-19T16:11:59;26.8;28.7
78448;SHT31;67742;51.972;5.682;2023-05-19T16:14:28;26.7;28.6
78448;SHT31;67742;51.972;5.682;2023-05-19T16:17:01;26.6;28.7
78448;SHT31;67742;51.972;5.682;2023-05-19T16:19:30;26.5;28.3
78448;SHT31;67742;51.972;5.682;2023-05-19T16:21:58;26.5;28.5
78448;SHT31;67742;51.972;5.682;2023-05-19T16:24:27;26.4;28.5